KGYH

Donaldson Field Airport

Greenville, South Carolina, USA
METAR KGYH 241147Z 00000KT 10SM OVC007 15/14 A3022
Observed Flight Rules
Feb-24 @ 11:47 UTC (37 minutes ago) Instrument Flight Rules
Wind Visibility Clouds
Calm 10 miles
  • Overcast at 700' AGL
Temperatures Readings
Current 15°C / 59°F
Dewpoint 14°C / 57°F
Humidity 94%
Altimeter 30.22" Hg
Pressure 1023 hPa
Elevation 292
METAR KGYH 241147Z 00000KT 10SM OVC007 15/14 A3022
Observed Flight Rules
Feb-24 @ 11:47 UTC
(37 minutes ago)
IFR
Wind Visibility
Calm 10 miles
Clouds
  • Overcast at 700' AGL
Temperature Dewpoint
15°C / 59°F 14°C / 57°F
Humidity Altimeter Pressure
94% 30.22" Hg 1023 hPa